메인 페이지
METAR-TAF:

METAR-TAF

공항 :

Naval Air Station Lemoore (Reeves Field)

Lemoore, 캘리포니아, 미국

위도: 36-18-13N, 경도: 119-56-17W, 고도: 71m

현재 날씨관측

예보는 17분 전, 19:56시(UTC)에 발표되었습니다.
여러 방향의 바람 3kt
온도 34°C
습도 26%
기압 1012 hPa
시정: 16.1km
고도 18000ft 상공 구름 조금

METAR: KNLC 131956Z VRB03KT 10SM FEW180 34/12 A2988 RMK AO2 SLP115 RH/27 T03390117

시각: 13:13 (20:13 UTC)

예보

예보 대상 시간: 13일 15시부터 14일 15시까지 (UTC)
북북서6kt
시정 10km 이상
맑음
13일 1600시부터 (UTC)
여러 방향의 바람 6kt
시정 10km 이상
고도 6000ft 상공 구름 조금
고도 17000ft 상공 구름 조금
13일 2130시부터 (UTC)
8kt
시정 10km 이상
고도 19000ft 상공 구름 조금
일시적
14일 00시부터 14일 06시까지 (UTC)
북북서10kt, 순간 최대 풍속 19kt
고도 18000ft 상공 구름 조금
고도 21000ft 상공 구름 보통
14일 1000시부터 (UTC)
북서6kt
시정 10km 이상
맑음

TAF: KNLC 1315/1415 33006KT 9999 SKC QNH2986INS FM131600 VRB06KT 9999 FEW060 FEW170 QNH2982INS FM132130 36008KT 9999 FEW190 QNH2978INS TEMPO 1400/1406 34010G19KT FEW180 SCT210 FM141000 32006KT 9999 SKC QNH2984INS TX37/1323Z TN18/1413Z FS30067

4,000개 이상의 공항 관측 자료 및 예보 (METAR 및 TAF 보고).

지도상에서 검색 가능한 기상관측소가 노란 점과 빨간 점으로 표시되어 있습니다.

기상관측소 명을 보려면 표시 위로 마우스를 이동하세요.

날씨 관측과 예보를 보려면 클릭하세요.

지도 변경 : 확대하려면 엑스 표시가 있는 녹색 버튼, 축소하려면 빼기 표시가 있는 녹색 버튼, 다음 페이지의 지도를 보려면 녹색 화살표를 클릭하세요.


METAR-TAF: